Time;durP1;ratioP1;P1;durP2;ratioP2;P2;SDS_P1;SDS_P2;PMS_P1;PMS_P2;Temp;Humidity;BMP_temperature;BMP_pressure;BME280_temperature;BME280_humidity;BME280_pressure;Samples;Min_cycle;Max_cycle;Signal;HPM_P1;HPM_P2
2023/09/12 00:00:16;;;;;;;69.68;46.25;;;;;;;18.11;100.00;101090.59;5023482;28;20033;-50
2023/09/12 00:02:41;;;;;;;84.70;47.97;;;;;;;18.57;100.00;101172.22;5017322;28;20038;-48
2023/09/12 00:05:07;;;;;;;73.97;45.58;;;;;;;18.13;100.00;101108.22;5026977;28;20040;-50
2023/09/12 00:07:32;;;;;;;77.72;47.38;;;;;;;18.13;100.00;101110.88;5034811;28;20242;-51
2023/09/12 00:09:58;;;;;;;78.88;47.65;;;;;;;18.48;100.00;101164.75;5035060;28;20055;-47
2023/09/12 00:12:24;;;;;;;80.70;47.00;;;;;;;18.47;100.00;101168.38;5034806;28;20041;-51
2023/09/12 00:14:50;;;;;;;77.82;48.40;;;;;;;18.16;100.00;101099.19;5030925;28;20080;-50
2023/09/12 00:17:15;;;;;;;82.07;48.65;;;;;;;18.56;100.00;101164.34;5014729;28;20077;-47
2023/09/12 00:19:40;;;;;;;79.45;48.35;;;;;;;18.21;100.00;101097.97;5014997;28;20387;-52
2023/09/12 00:22:06;;;;;;;74.10;48.75;;;;;;;18.54;100.00;101161.75;5029480;28;20053;-49
2023/09/12 00:24:31;;;;;;;78.60;50.53;;;;;;;18.19;100.00;101097.19;5019026;28;20073;-45
2023/09/12 00:26:56;;;;;;;81.40;50.20;;;;;;;18.45;100.00;101163.13;5034554;28;20474;-48
2023/09/12 00:29:21;;;;;;;80.95;49.15;;;;;;;17.96;100.00;101087.91;5006484;28;20031;-45
2023/09/12 00:31:47;;;;;;;89.22;51.55;;;;;;;18.13;100.00;101094.03;5005395;28;20042;-49
2023/09/12 00:34:17;;;;;;;83.35;50.30;;;;;;;18.47;100.00;101153.25;5014597;28;20037;-47
2023/09/12 00:36:42;;;;;;;86.80;52.30;;;;;;;18.47;100.00;101147.91;5016664;28;20419;-47
2023/09/12 00:39:07;;;;;;;83.00;50.08;;;;;;;18.47;100.00;101147.91;5030151;28;20092;-48
2023/09/12 00:41:33;;;;;;;83.90;50.63;;;;;;;18.09;100.00;101085.38;5008887;28;20046;-48
2023/09/12 00:43:58;;;;;;;85.25;51.47;;;;;;;18.42;100.00;101151.78;4996648;28;20042;-47
2023/09/12 00:46:24;;;;;;;86.82;53.38;;;;;;;18.27;100.00;101142.06;5011951;28;20034;-49
2023/09/12 00:48:49;;;;;;;94.45;51.58;;;;;;;18.29;100.00;101138.34;5012935;28;20034;-47
2023/09/12 00:51:15;;;;;;;93.28;52.30;;;;;;;17.90;100.00;101084.75;5014327;28;20037;-46
2023/09/12 00:53:41;;;;;;;97.10;52.78;;;;;;;17.95;100.00;101098.63;5014237;28;20068;-50
2023/09/12 00:56:06;;;;;;;87.93;51.25;;;;;;;17.85;100.00;101078.84;5015893;28;20029;-48
2023/09/12 00:58:32;;;;;;;108.85;55.95;;;;;;;18.12;100.00;101126.97;5043650;28;20037;-49
2023/09/12 01:00:58;;;;;;;95.93;53.03;;;;;;;18.16;100.00;101136.47;4998678;28;20065;-48
2023/09/12 01:03:24;;;;;;;92.70;53.00;;;;;;;18.15;100.00;101142.78;5004377;28;20034;-48
2023/09/12 01:05:50;;;;;;;104.70;58.15;;;;;;;18.11;100.00;101130.56;4991471;28;20030;-47
2023/09/12 01:08:16;;;;;;;105.88;56.38;;;;;;;17.84;100.00;101082.44;5004248;28;20038;-44
2023/09/12 01:10:45;;;;;;;98.40;53.05;;;;;;;17.84;100.00;101075.31;5013893;28;20042;-47
2023/09/12 01:13:12;;;;;;;98.55;55.42;;;;;;;18.25;100.00;101152.78;5031573;28;20137;-45
2023/09/12 01:15:37;;;;;;;92.35;51.38;;;;;;;18.10;100.00;101144.84;5015965;28;20499;-48
2023/09/12 01:18:02;;;;;;;85.03;49.45;;;;;;;17.64;100.00;101082.75;5025529;28;20459;-47
2023/09/12 01:20:31;;;;;;;95.35;51.35;;;;;;;17.66;100.00;101073.72;5011578;28;20552;-46
2023/09/12 01:23:10;;;;;;;88.78;47.88;;;;;;;17.71;100.00;101079.66;4974596;28;20042;-47
2023/09/12 01:25:55;;;;;;;84.53;46.80;;;;;;;18.00;100.00;101139.19;4994790;28;20034;-46
2023/09/12 01:28:24;;;;;;;86.53;48.15;;;;;;;17.90;100.00;101127.34;5030491;28;20052;-50
2023/09/12 01:30:50;;;;;;;90.20;48.40;;;;;;;17.97;100.00;101136.72;5020770;28;20034;-48
2023/09/12 01:33:15;;;;;;;81.55;45.80;;;;;;;17.93;100.00;101140.50;4986669;28;20108;-50
2023/09/12 01:35:41;;;;;;;89.00;48.50;;;;;;;17.89;100.00;101139.81;5014190;28;20491;-48
2023/09/12 01:38:06;;;;;;;93.53;46.92;;;;;;;17.86;100.00;101133.81;4993299;28;20048;-50
2023/09/12 01:40:41;;;;;;;78.88;44.78;;;;;;;17.45;100.00;101074.94;5022693;28;20052;-49
2023/09/12 01:43:06;;;;;;;88.03;45.97;;;;;;;17.61;100.00;101097.09;5027567;28;20112;-47
2023/09/12 01:45:32;;;;;;;91.28;45.28;;;;;;;17.78;100.00;101122.72;4994974;28;20049;-45
2023/09/12 01:47:58;;;;;;;87.38;44.90;;;;;;;17.25;100.00;101057.41;4976135;28;20116;-48
2023/09/12 01:50:25;;;;;;;79.15;43.08;;;;;;;17.71;100.00;101134.69;5008656;28;20487;-48
2023/09/12 01:52:51;;;;;;;89.70;45.25;;;;;;;17.66;100.00;101118.97;5030360;28;20041;-48
2023/09/12 01:55:17;;;;;;;81.88;44.88;;;;;;;17.22;100.00;101062.06;5015067;28;20094;-46
2023/09/12 01:57:43;;;;;;;78.80;41.85;;;;;;;17.63;100.00;101132.44;4996833;28;20065;-48
2023/09/12 02:00:09;;;;;;;76.55;42.83;;;;;;;17.54;100.00;101126.78;4993281;28;20042;-51
2023/09/12 02:02:34;;;;;;;76.68;41.05;;;;;;;17.57;100.00;101130.13;4992971;28;20046;-46
2023/09/12 02:05:09;;;;;;;74.22;38.88;;;;;;;17.54;100.00;101140.97;5002471;28;20128;-45
2023/09/12 02:07:37;;;;;;;69.82;39.25;;;;;;;17.56;100.00;101132.91;5027083;28;20038;-47
2023/09/12 02:10:04;;;;;;;78.30;42.75;;;;;;;17.19;100.00;101073.72;5012720;28;20040;-47
2023/09/12 02:12:30;;;;;;;74.50;41.60;;;;;;;17.15;100.00;101066.00;5013834;28;20033;-45
2023/09/12 02:14:55;;;;;;;72.05;39.72;;;;;;;17.42;100.00;101109.69;5005941;28;20049;-47
2023/09/12 02:17:20;;;;;;;73.72;38.90;;;;;;;17.52;100.00;101136.63;5021788;28;20107;-48
2023/09/12 02:19:47;;;;;;;75.65;41.88;;;;;;;17.44;100.00;101127.28;5007071;28;20411;-45
2023/09/12 02:22:13;;;;;;;75.63;40.20;;;;;;;17.48;100.00;101135.09;5014522;28;20029;-45
2023/09/12 02:24:38;;;;;;;70.85;38.80;;;;;;;17.44;100.00;101140.59;5021278;28;20040;-48
2023/09/12 02:27:04;;;;;;;69.10;40.42;;;;;;;17.24;100.00;101102.75;5028601;28;20045;-45
2023/09/12 02:29:29;;;;;;;68.35;38.80;;;;;;;17.34;100.00;101127.88;4994781;28;20447;-45
2023/09/12 02:31:56;;;;;;;72.45;39.75;;;;;;;17.36;100.00;101126.00;5001868;28;20042;-46
2023/09/12 02:34:21;;;;;;;77.32;38.95;;;;;;;17.41;100.00;101135.44;5014278;28;20507;-48
2023/09/12 02:36:46;;;;;;;70.85;38.50;;;;;;;17.39;100.00;101123.19;5010008;28;20053;-48
2023/09/12 02:39:12;;;;;;;70.55;37.20;;;;;;;17.34;100.00;101120.75;5009792;28;20033;-46
2023/09/12 02:41:37;;;;;;;64.32;37.50;;;;;;;17.37;100.00;101133.03;5012515;28;20057;-46
2023/09/12 02:44:02;;;;;;;67.38;36.75;;;;;;;17.38;100.00;101132.97;5026536;28;20112;-45
2023/09/12 02:46:28;;;;;;;63.38;36.13;;;;;;;17.39;100.00;101136.47;5008196;28;20507;-47
2023/09/12 02:48:53;;;;;;;68.15;35.97;;;;;;;17.41;100.00;101145.22;5012041;28;20037;-50
2023/09/12 02:51:18;;;;;;;66.20;35.53;;;;;;;17.38;100.00;101134.75;4978205;28;20038;-51
2023/09/12 02:53:43;;;;;;;72.22;37.58;;;;;;;16.87;100.00;101048.06;5011503;28;20030;-51
2023/09/12 02:56:09;;;;;;;71.18;36.63;;;;;;;17.36;100.00;101128.66;4998738;28;20060;-52
2023/09/12 02:58:34;;;;;;;75.28;36.78;;;;;;;17.31;100.00;101120.94;5011198;28;20064;-49
2023/09/12 03:01:01;;;;;;;71.63;36.58;;;;;;;17.42;100.00;101126.50;5011372;28;20430;-47
2023/09/12 03:03:26;;;;;;;65.30;36.17;;;;;;;17.45;100.00;101134.31;4997216;28;20072;-48
2023/09/12 03:05:59;;;;;;;74.22;37.42;;;;;;;17.45;100.00;101118.34;4991909;28;20054;-46
2023/09/12 03:08:24;;;;;;;80.85;40.95;;;;;;;17.40;100.00;101106.25;4998853;28;20119;-47
2023/09/12 03:11:07;;;;;;;71.80;36.67;;;;;;;17.53;100.00;101125.06;5013969;28;20081;-46
2023/09/12 03:13:33;;;;;;;73.47;38.50;;;;;;;17.61;100.00;101118.38;4992883;28;20117;-47
2023/09/12 03:15:59;;;;;;;83.18;40.03;;;;;;;17.24;100.00;101055.72;5005498;28;20508;-49
2023/09/12 03:18:25;;;;;;;84.97;39.95;;;;;;;17.53;100.00;101114.41;5008694;28;20125;-47
2023/09/12 03:20:50;;;;;;;82.38;40.20;;;;;;;17.22;100.00;101052.25;5007576;28;20212;-49
2023/09/12 03:23:15;;;;;;;85.47;40.05;;;;;;;17.67;100.00;101119.84;5015365;28;20045;-48
2023/09/12 03:25:41;;;;;;;81.65;40.13;;;;;;;17.56;100.00;101098.28;5021348;28;20390;-50
2023/09/12 03:28:06;;;;;;;76.20;39.38;;;;;;;17.73;100.00;101109.69;5023114;28;20045;-52
2023/09/12 03:30:36;;;;;;;68.60;38.88;;;;;;;17.36;100.00;101043.53;5013286;28;20037;-49
2023/09/12 03:33:02;;;;;;;74.85;39.80;;;;;;;17.69;100.00;101100.16;4991808;28;20035;-53
2023/09/12 03:35:29;;;;;;;83.50;41.17;;;;;;;17.27;100.00;101017.44;5013384;28;20125;-48
2023/09/12 03:37:54;;;;;;;86.68;40.83;;;;;;;17.82;100.00;101109.16;5016574;28;20025;-50
2023/09/12 03:40:19;;;;;;;83.75;41.63;;;;;;;17.83;100.00;101104.72;5046666;28;20060;-52
2023/09/12 03:42:45;;;;;;;87.72;43.60;;;;;;;17.76;100.00;101079.38;5003975;28;20076;-45
2023/09/12 03:45:10;;;;;;;96.18;42.50;;;;;;;17.90;100.00;101103.38;5023536;28;20033;-50
2023/09/12 03:47:35;;;;;;;83.65;41.83;;;;;;;17.78;100.00;101080.13;5014579;28;20449;-47
2023/09/12 03:50:02;;;;;;;86.57;41.20;;;;;;;17.83;100.00;101086.06;5025410;28;20048;-50
2023/09/12 03:52:27;;;;;;;94.90;43.90;;;;;;;17.53;100.00;101042.53;5029343;28;20045;-46
2023/09/12 03:54:52;;;;;;;94.47;43.47;;;;;;;17.91;100.00;101102.44;5004093;28;20040;-49
2023/09/12 03:57:18;;;;;;;99.03;43.80;;;;;;;17.94;100.00;101105.78;5031180;28;20045;-46
2023/09/12 03:59:43;;;;;;;83.70;41.97;;;;;;;17.89;100.00;101091.03;5010092;28;20034;-49
2023/09/12 04:02:08;;;;;;;88.50;43.38;;;;;;;17.63;100.00;101041.94;4997188;28;20196;-48
2023/09/12 04:04:34;;;;;;;83.72;42.15;;;;;;;17.98;100.00;101115.31;4993679;28;20070;-49
2023/09/12 04:06:59;;;;;;;83.00;43.00;;;;;;;17.40;100.00;100997.16;4991145;28;20575;-45
2023/09/12 04:09:24;;;;;;;94.80;44.50;;;;;;;17.54;100.00;101036.28;5013279;28;20514;-49
2023/09/12 04:11:50;;;;;;;89.80;43.10;;;;;;;17.95;100.00;101101.31;4994695;28;20038;-49
2023/09/12 04:14:15;;;;;;;93.35;44.72;;;;;;;17.99;100.00;101105.50;5004819;28;20070;-49
2023/09/12 04:16:40;;;;;;;94.47;43.28;;;;;;;17.99;100.00;101094.84;4991451;28;20046;-47
2023/09/12 04:19:06;;;;;;;106.22;45.28;;;;;;;18.01;100.00;101108.09;5003764;28;20048;-51
2023/09/12 04:21:31;;;;;;;95.75;45.03;;;;;;;18.03;100.00;101111.53;5010375;28;20096;-48
2023/09/12 04:23:56;;;;;;;100.68;46.45;;;;;;;17.62;100.00;101036.72;5010862;28;20092;-47
2023/09/12 04:26:22;;;;;;;94.05;45.67;;;;;;;17.66;100.00;101036.44;5007811;28;20079;-50
2023/09/12 04:28:47;;;;;;;106.13;48.40;;;;;;;17.69;100.00;101032.75;4995737;28;20033;-47
2023/09/12 04:31:12;;;;;;;95.28;46.30;;;;;;;17.79;100.00;101045.44;4983754;28;20514;-46
2023/09/12 04:33:38;;;;;;;103.55;47.78;;;;;;;18.04;100.00;101099.94;5009917;28;20077;-47
2023/09/12 04:36:03;;;;;;;99.38;45.67;;;;;;;18.06;100.00;101092.69;4994707;28;20299;-49
2023/09/12 04:38:29;;;;;;;104.57;46.17;;;;;;;18.13;100.00;101102.03;4994914;28;20053;-49
2023/09/12 04:40:55;;;;;;;99.28;45.75;;;;;;;18.30;100.00;101121.38;5015063;28;20033;-46
2023/09/12 04:43:21;;;;;;;103.95;48.08;;;;;;;18.31;100.00;101116.91;5023410;28;20058;-51
2023/09/12 04:45:46;;;;;;;108.60;49.25;;;;;;;18.38;100.00;101123.63;5015032;28;20133;-48
2023/09/12 04:48:11;;;;;;;105.28;46.78;;;;;;;18.34;100.00;101106.06;4992267;28;20480;-47
2023/09/12 04:50:42;;;;;;;100.32;48.35;;;;;;;18.32;100.00;101087.53;5017308;28;20048;-48
2023/09/12 04:53:07;;;;;;;102.63;46.50;;;;;;;17.99;100.00;101028.28;4992590;28;20134;-47
2023/09/12 04:55:35;;;;;;;103.90;48.60;;;;;;;18.50;100.00;101107.75;5003545;28;20443;-49
2023/09/12 04:58:01;;;;;;;98.53;46.55;;;;;;;18.17;100.00;101048.47;5033076;28;20029;-50
2023/09/12 05:00:26;;;;;;;97.78;45.75;;;;;;;18.17;100.00;101048.47;5011884;28;20045;-48
2023/09/12 05:02:51;;;;;;;105.20;46.10;;;;;;;18.59;100.00;101110.81;5013476;28;20092;-51
2023/09/12 05:05:16;;;;;;;97.13;46.65;;;;;;;18.60;100.00;101110.72;5012790;28;20450;-48
2023/09/12 05:07:42;;;;;;;103.65;47.88;;;;;;;18.28;100.00;101042.50;5013264;28;20057;-49
2023/09/12 05:10:07;;;;;;;99.72;46.05;;;;;;;18.17;100.00;101040.50;5014287;28;20441;-48
2023/09/12 05:12:33;;;;;;;97.93;45.33;;;;;;;18.53;100.00;101096.91;4999547;28;20490;-48
2023/09/12 05:14:58;;;;;;;95.20;46.38;;;;;;;18.27;100.00;101041.63;5020775;28;20479;-46
2023/09/12 05:17:23;;;;;;;108.80;49.45;;;;;;;18.71;100.00;101102.09;5021898;28;20068;-48
2023/09/12 05:19:49;;;;;;;102.65;46.72;;;;;;;18.69;100.00;101103.97;5020134;28;20204;-47
2023/09/12 05:22:14;;;;;;;105.50;48.35;;;;;;;18.76;100.00;101108.84;5013357;28;20037;-49
2023/09/12 05:24:39;;;;;;;108.93;50.15;;;;;;;18.42;100.00;101046.03;5012701;28;20509;-50
2023/09/12 05:27:05;;;;;;;112.00;49.40;;;;;;;18.80;100.00;101117.47;4993374;28;20038;-46
2023/09/12 05:29:31;;;;;;;117.18;52.72;;;;;;;18.72;100.00;101109.09;4998753;28;20035;-46
2023/09/12 05:31:56;;;;;;;105.68;48.58;;;;;;;18.44;100.00;101048.63;5030196;28;20054;-49
2023/09/12 05:34:21;;;;;;;123.15;50.78;;;;;;;18.33;100.00;101035.94;5008189;28;20125;-51
2023/09/12 05:36:47;;;;;;;112.20;51.38;;;;;;;18.40;100.00;101039.94;4996998;28;20415;-46
2023/09/12 05:39:13;;;;;;;106.97;48.88;;;;;;;18.79;100.00;101102.47;5001717;28;20065;-46
2023/09/12 05:41:39;;;;;;;109.28;50.95;;;;;;;18.90;100.00;101130.16;5022179;28;20054;-48
2023/09/12 05:44:04;;;;;;;108.80;47.90;;;;;;;18.88;100.00;101123.22;5019801;28;20085;-47
2023/09/12 05:46:30;;;;;;;98.55;49.03;;;;;;;18.92;100.00;101128.25;5027750;28;20033;-47
2023/09/12 05:48:55;;;;;;;109.82;49.45;;;;;;;18.98;100.00;101137.69;5010822;28;20045;-47
2023/09/12 05:51:20;;;;;;;119.20;52.38;;;;;;;18.96;100.00;101119.13;5007011;28;20026;-47
2023/09/12 05:53:46;;;;;;;113.97;50.58;;;;;;;19.01;100.00;101117.00;5015318;28;20045;-47
2023/09/12 05:56:11;;;;;;;105.80;47.63;;;;;;;19.03;100.00;101120.44;5001180;28;20484;-49
2023/09/12 05:58:41;;;;;;;105.18;49.42;;;;;;;19.06;100.00;101122.03;5021947;28;20042;-46
2023/09/12 06:01:06;;;;;;;113.28;49.95;;;;;;;18.60;100.00;101048.53;4996617;28;20036;-46
2023/09/12 06:03:32;;;;;;;117.32;51.83;;;;;;;18.67;100.00;101055.22;5012716;28;20037;-47
2023/09/12 06:05:57;;;;;;;122.40;52.35;;;;;;;19.03;100.00;101111.59;5008334;28;20309;-49
2023/09/12 06:08:22;;;;;;;111.30;50.22;;;;;;;18.98;100.00;101109.19;5016856;28;20038;-49
2023/09/12 06:10:48;;;;;;;107.72;48.10;;;;;;;18.76;100.00;101067.97;5001204;28;20061;-46
2023/09/12 06:13:14;;;;;;;116.18;49.33;;;;;;;19.12;100.00;101126.16;5015239;28;20042;-44
2023/09/12 06:15:41;;;;;;;108.90;49.60;;;;;;;18.78;100.00;101064.25;5024130;28;20132;-50
2023/09/12 06:18:06;;;;;;;113.97;49.67;;;;;;;19.08;100.00;101121.03;5011618;28;20456;-46
2023/09/12 06:20:32;;;;;;;105.90;50.20;;;;;;;19.07;100.00;101116.63;5000173;28;20113;-50
2023/09/12 06:22:58;;;;;;;111.22;49.83;;;;;;;18.92;100.00;101101.59;5003248;28;20488;-44
2023/09/12 06:25:24;;;;;;;92.25;44.90;;;;;;;18.67;100.00;101063.22;4996530;28;20090;-46
2023/09/12 06:27:50;;;;;;;107.00;48.22;;;;;;;18.33;100.00;101008.44;4989718;28;20076;-49
2023/09/12 06:30:15;;;;;;;105.97;49.45;;;;;;;19.00;100.00;101115.28;5012720;28;20034;-45
2023/09/12 06:32:40;;;;;;;106.82;48.92;;;;;;;19.02;100.00;101116.06;5017531;28;20125;-49
2023/09/12 06:35:06;;;;;;;107.05;49.42;;;;;;;19.22;100.00;101129.94;4976067;28;20042;-43
2023/09/12 06:37:32;;;;;;;106.50;48.47;;;;;;;19.27;100.00;101135.84;4992991;28;20034;-49
2023/09/12 06:39:57;;;;;;;108.35;51.60;;;;;;;19.30;100.00;101136.50;4975304;28;20092;-51
2023/09/12 06:42:22;;;;;;;117.38;51.35;;;;;;;19.14;100.00;101087.75;4992606;28;20054;-45
2023/09/12 06:44:48;;;;;;;102.35;50.03;;;;;;;19.22;100.00;101082.78;5010063;28;20038;-45
2023/09/12 06:47:13;;;;;;;102.40;51.22;;;;;;;19.32;100.00;101080.38;5012427;28;20037;-46
2023/09/12 06:49:38;;;;;;;100.35;49.65;;;;;;;19.35;100.00;101067.66;5009487;28;20034;-49
2023/09/12 06:52:04;;;;;;;97.43;49.38;;;;;;;19.86;100.00;101140.88;5006727;28;20041;-48
2023/09/12 06:54:29;;;;;;;95.18;49.72;;;;;;;19.90;100.00;101137.06;4992671;28;20061;-45
2023/09/12 06:56:55;;;;;;;94.80;48.95;;;;;;;19.75;100.00;101099.81;4974942;28;20061;-45
2023/09/12 06:59:20;;;;;;;91.40;49.78;;;;;;;19.63;100.00;101056.09;4984012;28;20034;-46
2023/09/12 07:01:46;;;;;;;78.20;44.13;;;;;;;19.99;100.00;101087.50;5003698;28;20030;-46
2023/09/12 07:04:11;;;;;;;79.63;45.25;;;;;;;20.08;100.00;101076.19;4998804;28;20037;-49
2023/09/12 07:06:36;;;;;;;84.25;45.78;;;;;;;20.45;100.00;101131.56;5001094;28;20141;-46
2023/09/12 07:09:03;;;;;;;80.90;45.10;;;;;;;20.52;100.00;101135.50;4983694;28;20113;-46
2023/09/12 07:11:28;;;;;;;67.75;42.65;;;;;;;20.46;100.00;101119.88;5006003;28;20483;-46
2023/09/12 07:13:54;;;;;;;69.93;44.03;;;;;;;20.52;100.00;101121.28;5010090;28;20044;-47
2023/09/12 07:16:20;;;;;;;63.30;40.08;;;;;;;20.60;100.00;101116.25;5009817;28;20046;-45
2023/09/12 07:18:46;;;;;;;61.75;40.33;;;;;;;20.39;100.00;101081.16;5008814;28;20042;-49
2023/09/12 07:21:12;;;;;;;66.00;39.88;;;;;;;20.35;100.00;101082.31;5006288;28;20034;-47
2023/09/12 07:23:37;;;;;;;60.67;38.70;;;;;;;20.47;100.00;101078.81;5009704;28;20048;-45
2023/09/12 07:26:03;;;;;;;47.65;34.38;;;;;;;20.89;100.00;101146.31;5013700;28;20128;-48
2023/09/12 07:28:30;;;;;;;51.38;35.28;;;;;;;20.85;100.00;101151.03;5011074;28;20025;-46
2023/09/12 07:30:56;;;;;;;55.38;37.00;;;;;;;20.60;100.00;101087.72;5009971;28;20165;-45
2023/09/12 07:33:22;;;;;;;54.92;36.90;;;;;;;20.75;100.00;101099.97;4993432;28;20069;-46
2023/09/12 07:35:48;;;;;;;51.83;34.92;;;;;;;21.09;100.00;101140.44;5008894;28;20048;-42
2023/09/12 07:38:17;;;;;;;48.88;35.58;;;;;;;21.39;100.00;101166.84;5024262;28;20115;-41
2023/09/12 07:40:42;;;;;;;46.45;34.72;;;;;;;21.08;100.00;101094.09;4990860;28;20729;-49
2023/09/12 07:43:07;;;;;;;47.58;34.55;;;;;;;21.46;100.00;101158.25;5008573;28;20058;-45
2023/09/12 07:45:36;;;;;;;51.75;34.25;;;;;;;20.85;100.00;101054.72;4995257;28;20026;-47
2023/09/12 07:48:06;;;;;;;48.33;35.33;;;;;;;21.04;100.00;101123.84;5009275;28;20044;-47
2023/09/12 07:50:31;;;;;;;45.55;34.17;;;;;;;21.41;100.00;101179.16;5009089;28;20030;-50
2023/09/12 07:52:56;;;;;;;48.72;35.88;;;;;;;21.48;100.00;101183.09;5008770;28;20044;-46
2023/09/12 07:55:22;;;;;;;47.10;36.85;;;;;;;21.16;100.00;101106.94;5008905;28;20050;-47
2023/09/12 07:57:47;;;;;;;43.30;34.30;;;;;;;21.55;100.00;101160.25;5023515;28;20494;-51
2023/09/12 08:00:13;;;;;;;43.75;33.42;;;;;;;21.78;100.00;101178.19;5007819;28;20487;-45
2023/09/12 08:02:38;;;;;;;41.75;33.83;;;;;;;21.94;100.00;101147.63;4973075;28;20093;-45
2023/09/12 08:05:05;;;;;;;39.33;33.05;;;;;;;22.51;100.00;101159.28;4993531;28;20038;-46
2023/09/12 08:07:30;;;;;;;40.42;31.52;;;;;;;22.89;100.00;101167.06;5011668;28;20518;-53
2023/09/12 08:09:57;;;;;;;41.13;31.85;;;;;;;23.15;100.00;101120.22;5008099;28;20070;-50
2023/09/12 08:12:23;;;;;;;35.00;29.27;;;;;;;23.76;100.00;101116.09;5007801;28;20148;-46
2023/09/12 08:14:49;;;;;;;31.65;28.20;;;;;;;24.52;100.00;101172.38;4975240;28;20035;-45
2023/09/12 08:17:15;;;;;;;32.78;28.83;;;;;;;24.95;100.00;101169.59;4993111;28;20073;-47
2023/09/12 08:19:40;;;;;;;28.75;25.75;;;;;;;25.73;100.00;101210.22;4993303;28;20038;-48
2023/09/12 08:22:07;;;;;;;29.73;26.52;;;;;;;26.10;100.00;101178.03;4994045;28;20034;-50
2023/09/12 08:24:33;;;;;;;28.20;25.20;;;;;;;26.94;100.00;101222.38;5008761;28;20042;-45
2023/09/12 08:26:58;;;;;;;28.55;25.52;;;;;;;27.12;100.00;101226.03;4993168;28;20105;-45
2023/09/12 08:29:24;;;;;;;28.63;25.25;;;;;;;26.85;100.00;101187.28;4993618;28;20042;-45
2023/09/12 08:31:49;;;;;;;29.75;26.45;;;;;;;26.89;100.00;101230.06;4992902;28;20068;-48
2023/09/12 08:34:15;;;;;;;26.95;24.05;;;;;;;26.56;100.00;101181.91;5031770;23;20058;-50
2023/09/12 08:36:40;;;;;;;27.88;25.08;;;;;;;26.90;100.00;101233.63;5032192;28;20494;-47
2023/09/12 08:39:08;;;;;;;32.97;26.13;;;;;;;27.02;100.00;101237.88;5032416;28;20049;-47
2023/09/12 08:41:33;;;;;;;27.20;24.20;;;;;;;26.32;100.00;101158.06;5047898;28;20467;-51
2023/09/12 08:44:00;;;;;;;28.80;24.85;;;;;;;26.34;100.00;101212.75;5032222;28;20040;-47
2023/09/12 08:46:26;;;;;;;26.48;23.67;;;;;;;26.04;100.00;101237.09;5032100;28;20030;-52
2023/09/12 08:48:52;;;;;;;27.58;23.48;;;;;;;25.39;100.00;101222.28;5032348;28;20044;-47
2023/09/12 08:51:18;;;;;;;25.80;22.38;;;;;;;25.22;100.00;101222.88;5014419;28;20032;-51
2023/09/12 08:53:44;;;;;;;24.95;21.52;;;;;;;25.34;100.00;101180.53;5047333;28;20113;-51
2023/09/12 08:56:09;;;;;;;24.40;21.30;;;;;;;25.81;100.00;101208.66;5047384;28;20037;-45
2023/09/12 08:58:35;;;;;;;22.88;20.42;;;;;;;25.68;100.00;101166.66;5032144;28;20053;-46
2023/09/12 09:01:02;;;;;;;22.55;19.23;;;;;;;26.52;100.00;101202.94;5032342;28;20199;-49
2023/09/12 09:03:29;;;;;;;21.67;18.35;;;;;;;27.55;100.00;101232.75;5032101;28;20029;-49
2023/09/12 09:05:55;;;;;;;21.83;19.25;;;;;;;27.02;100.00;101202.75;5029147;28;20052;-48
2023/09/12 09:08:21;;;;;;;21.33;19.00;;;;;;;26.80;100.00;101175.06;5046493;28;20037;-48
2023/09/12 09:10:57;;;;;;;19.70;17.75;;;;;;;27.29;100.00;101241.47;5047132;28;20033;-47
2023/09/12 09:13:22;;;;;;;20.45;17.52;;;;;;;27.42;100.00;101243.88;5047180;28;20029;-45
2023/09/12 09:15:48;;;;;;;19.23;16.67;;;;;;;26.94;100.00;101237.75;5030811;28;20091;-51
2023/09/12 09:18:13;;;;;;;22.52;18.58;;;;;;;26.58;100.00;101244.72;5031635;28;20039;-45
2023/09/12 09:20:39;;;;;;;19.40;16.75;;;;;;;26.26;100.00;101242.28;5031506;28;20061;-48
2023/09/12 09:23:09;;;;;;;22.67;19.25;;;;;;;26.15;100.00;101237.84;5031758;28;20053;-49
2023/09/12 09:25:51;;;;;;;18.48;16.70;;;;;;;26.95;100.00;101234.03;5013885;28;20071;-46
2023/09/12 09:28:18;;;;;;;19.55;17.17;;;;;;;27.84;100.00;101179.34;5031467;28;20029;-53
2023/09/12 09:30:45;;;;;;;19.95;16.95;;;;;;;28.90;100.00;101190.13;5031576;28;20431;-49
2023/09/12 09:33:11;;;;;;;15.68;14.18;;;;;;;30.74;100.00;101245.28;5046838;28;20441;-43
2023/09/12 09:35:37;;;;;;;15.07;13.70;;;;;;;31.20;100.00;101227.44;5046232;28;20511;-46
2023/09/12 09:38:03;;;;;;;14.68;13.05;;;;;;;31.63;100.00;101300.47;5031268;28;20051;-47
2023/09/12 09:40:29;;;;;;;16.17;13.57;;;;;;;30.35;100.00;101238.78;5046776;28;20144;-46
2023/09/12 09:42:56;;;;;;;15.88;14.35;;;;;;;30.13;100.00;101267.41;5030126;28;20065;-46
2023/09/12 09:45:21;;;;;;;16.08;14.48;;;;;;;29.52;100.00;101243.22;5046544;28;20616;-51
2023/09/12 09:47:49;;;;;;;14.85;13.35;;;;;;;28.77;100.00;101261.03;5031021;28;20037;-50
2023/09/12 09:50:15;;;;;;;16.20;14.05;;;;;;;28.23;100.00;101288.19;5031113;28;20044;-50
2023/09/12 09:52:40;;;;;;;17.10;15.30;;;;;;;27.19;100.00;101196.56;5013223;28;20037;-53
2023/09/12 09:55:14;;;;;;;19.67;17.80;;;;;;;27.41;100.00;101262.94;5031139;28;20088;-46
2023/09/12 09:57:39;;;;;;;17.60;15.80;;;;;;;27.84;100.00;101234.31;5031142;28;20052;-47
2023/09/12 10:00:08;;;;;;;17.25;15.45;;;;;;;28.28;100.00;101264.25;5046393;28;20037;-47
2023/09/12 10:02:35;;;;;;;17.88;16.23;;;;;;;27.48;100.00;101158.63;5031223;28;20464;-49
2023/09/12 10:05:04;;;;;;;19.20;16.52;;;;;;;27.42;100.00;101259.25;5031154;28;20041;-45
2023/09/12 10:07:32;;;;;;;18.63;16.65;;;;;;;26.63;100.00;101237.03;5046178;28;20039;-52
2023/09/12 10:10:00;;;;;;;18.80;16.27;;;;;;;26.13;100.00;101244.34;5045951;28;20471;-52
2023/09/12 10:12:28;;;;;;;19.98;17.92;;;;;;;25.86;100.00;101244.19;5046002;28;20033;-45
2023/09/12 10:14:54;;;;;;;19.23;16.88;;;;;;;25.61;100.00;101238.28;5031074;28;20404;-49
2023/09/12 10:17:23;;;;;;;14.52;12.95;;;;;;;25.57;100.00;101250.31;5046054;28;20498;-50
2023/09/12 10:19:53;;;;;;;13.38;12.05;;;;;;;24.94;100.00;101175.09;5030540;28;20678;-46
2023/09/12 10:22:27;;;;;;;11.18;10.00;;;;;;;25.10;100.00;101242.81;5030541;28;20029;-47
2023/09/12 10:24:53;;;;;;;12.80;11.48;;;;;;;25.06;100.00;101238.69;5045440;28;20113;-49
2023/09/12 10:27:19;;;;;;;15.88;13.13;;;;;;;24.59;100.00;101175.41;5012388;28;20042;-53
2023/09/12 10:29:47;;;;;;;17.85;14.88;;;;;;;24.71;100.00;101217.44;5030280;28;20040;-46
2023/09/12 10:32:14;;;;;;;18.92;15.65;;;;;;;24.45;100.00;101190.06;5030108;28;20188;-46
2023/09/12 10:34:42;;;;;;;17.80;15.93;;;;;;;24.56;100.00;101224.97;5030011;28;20057;-50
2023/09/12 10:37:07;;;;;;;20.70;18.60;;;;;;;24.14;100.00;101184.69;5044672;28;20269;-49
2023/09/12 10:39:34;;;;;;;21.45;18.35;;;;;;;24.05;100.00;101200.56;5030022;28;20194;-53
2023/09/12 10:42:04;;;;;;;22.52;19.27;;;;;;;23.97;100.00;101212.94;5030235;28;20080;-46
2023/09/12 10:44:30;;;;;;;24.05;21.30;;;;;;;23.91;100.00;101203.53;5030266;28;20041;-52
2023/09/12 10:46:57;;;;;;;22.92;20.52;;;;;;;23.49;100.00;101145.25;5030071;28;20056;-50
2023/09/12 10:49:23;;;;;;;21.88;19.55;;;;;;;23.80;100.00;101195.50;5045449;28;20485;-49
2023/09/12 10:51:49;;;;;;;25.48;20.15;;;;;;;23.83;100.00;101191.72;5029978;28;20083;-45
2023/09/12 10:54:44;;;;;;;26.63;19.90;;;;;;;23.74;100.00;101204.06;5029902;28;20550;-48